createdAt,value
2018-01-10T00:00:31.442Z,4.19
2018-01-10T00:01:31.785Z,4.22
2018-01-10T00:02:32.154Z,4.15
2018-01-10T00:03:31.450Z,4.16
2018-01-10T00:04:31.750Z,4.18
2018-01-10T00:05:32.065Z,4.17
2018-01-10T00:06:31.448Z,4.09
2018-01-10T00:07:31.827Z,4.16
2018-01-10T00:08:32.113Z,4.08
2018-01-10T00:09:31.575Z,4.08
2018-01-10T00:10:32.009Z,4.15
2018-01-10T00:11:31.314Z,4.13
2018-01-10T00:12:31.530Z,4.1
2018-01-10T00:13:31.714Z,4.09
2018-01-10T00:14:31.966Z,4.09
2018-01-10T00:15:31.282Z,4.06
2018-01-10T00:16:31.997Z,4.1
2018-01-10T00:17:32.295Z,4.09
2018-01-10T00:18:31.667Z,4.07
2018-01-10T00:19:31.815Z,4.11
2018-01-10T00:20:32.166Z,4.06
2018-01-10T00:21:31.328Z,4.09
2018-01-10T00:22:31.545Z,4.06
2018-01-10T00:23:31.938Z,4.05
2018-01-10T00:24:32.188Z,4.1
2018-01-10T00:25:31.363Z,4.06
2018-01-10T00:26:31.519Z,4.01
2018-01-10T00:27:31.687Z,4.09
2018-01-10T00:28:31.859Z,4.13
2018-01-10T00:29:32.114Z,4.06
2018-01-10T00:30:31.517Z,4.09
2018-01-10T00:31:31.723Z,4.09
2018-01-10T00:32:31.991Z,4.07
2018-01-10T00:33:31.315Z,4.07
2018-01-10T00:34:31.630Z,4.09
2018-01-10T00:35:31.992Z,4.04
2018-01-10T00:38:32.246Z,4.07
2018-01-10T00:39:31.626Z,4
2018-01-10T00:40:31.954Z,4.03
2018-01-10T00:41:31.449Z,4.09
2018-01-10T00:42:31.773Z,4.06
2018-01-10T00:43:32.148Z,4.03
2018-01-10T00:44:31.391Z,4.05
2018-01-10T00:45:31.662Z,4.04
2018-01-10T00:46:31.035Z,4.06
2018-01-10T00:47:31.286Z,4.05
2018-01-10T00:48:31.486Z,3.99
2018-01-10T00:49:30.738Z,4.08
2018-01-10T00:50:30.986Z,4.07
2018-01-10T00:51:31.711Z,4.12
2018-01-10T00:52:31.189Z,4.07
2018-01-10T00:53:31.535Z,4.06
2018-01-10T00:54:30.912Z,4.09
2018-01-10T00:55:31.184Z,4.17
2018-01-10T00:56:31.427Z,4.11
2018-01-10T00:57:30.718Z,4.13
2018-01-10T00:58:31.053Z,4.14
2018-01-10T00:59:31.369Z,4.06
2018-01-10T01:00:31.593Z,4.05
2018-01-10T01:01:30.790Z,4.07
2018-01-10T01:02:31.160Z,4.08
2018-01-10T01:03:30.746Z,4.19
2018-01-10T01:04:30.836Z,4.17
2018-01-10T01:05:31.102Z,4.16
2018-01-10T01:06:31.466Z,4.15
2018-01-10T01:07:30.793Z,4.2
2018-01-10T01:08:30.987Z,4.15
2018-01-10T01:09:31.322Z,4.15
2018-01-10T01:10:31.536Z,4.15
2018-01-10T01:11:30.761Z,4.22
2018-01-10T01:12:30.919Z,4.23
2018-01-10T01:13:31.123Z,4.27
2018-01-10T01:14:31.669Z,4.24
2018-01-10T01:15:31.073Z,4.22
2018-01-10T01:16:31.450Z,4.2
2018-01-10T01:17:30.813Z,4.18
2018-01-10T01:18:31.257Z,4.23
2018-01-10T01:19:30.770Z,4.22
2018-01-10T01:20:31.294Z,4.2
2018-01-10T01:21:30.794Z,4.28
2018-01-10T01:22:31.118Z,4.23
2018-01-10T01:23:30.367Z,4.16
2018-01-10T01:24:30.441Z,4.2
2018-01-10T01:25:30.720Z,4.09
2018-01-10T01:26:30.792Z,4.18
2018-01-10T01:27:31.049Z,4.08
2018-01-10T01:28:31.332Z,4.08
2018-01-10T01:29:30.635Z,4.14
2018-01-10T01:30:30.861Z,4.12
2018-01-10T01:31:31.069Z,4.1
2018-01-10T01:32:31.292Z,4.05
2018-01-10T01:33:30.554Z,4.04
2018-01-10T01:34:30.802Z,4.13
2018-01-10T01:35:31.015Z,4.03
2018-01-10T01:36:30.429Z,4.1
2018-01-10T01:37:30.617Z,4.02
2018-01-10T01:38:30.776Z,4.01
2018-01-10T01:39:31.063Z,4.07
2018-01-10T01:40:30.515Z,4
2018-01-10T01:41:30.745Z,3.99
2018-01-10T01:42:30.991Z,3.91
2018-01-10T01:43:31.234Z,3.9
2018-01-10T01:44:30.613Z,3.88
2018-01-10T01:45:30.876Z,3.96
2018-01-10T01:46:31.084Z,3.97
2018-01-10T01:47:30.466Z,3.96
2018-01-10T01:48:30.792Z,3.98
2018-01-10T01:49:31.038Z,3.98
2018-01-10T01:50:31.228Z,4.03
2018-01-10T01:51:31.377Z,3.98
2018-01-10T01:52:30.825Z,4.04
2018-01-10T01:53:31.449Z,3.94
2018-01-10T01:54:30.711Z,3.97
2018-01-10T01:55:31.001Z,3.96
2018-01-10T01:56:31.169Z,4.01
2018-01-10T01:57:31.331Z,3.99
2018-01-10T01:58:30.710Z,3.94
2018-01-10T01:59:30.958Z,4.1
2018-01-10T02:00:31.161Z,4.01
2018-01-10T02:01:31.402Z,4.15
2018-01-10T02:02:30.660Z,4.05
2018-01-10T02:03:30.907Z,4.07
2018-01-10T02:04:31.295Z,4.09
2018-01-10T02:05:30.605Z,4.14
2018-01-10T02:06:30.809Z,4.12
2018-01-10T02:07:31.107Z,4.15
2018-01-10T02:08:31.421Z,4.11
2018-01-10T02:09:31.009Z,4.13
2018-01-10T02:10:31.768Z,4.12
2018-01-10T02:13:42.007Z,4.13
2018-01-10T02:14:31.310Z,4.16
2018-01-10T02:15:30.555Z,4.2
2018-01-10T02:16:30.754Z,4.11
2018-01-10T02:17:31.047Z,4.15
2018-01-10T02:18:31.282Z,4.11
2018-01-10T02:19:31.173Z,4.14
2018-01-10T02:20:31.599Z,4.24
2018-01-10T02:21:32.916Z,4.23
2018-01-10T02:22:31.220Z,4.18
2018-01-10T02:23:33.114Z,4.2
2018-01-10T02:24:31.431Z,4.21
2018-01-10T02:25:31.581Z,4.2
2018-01-10T02:26:31.429Z,4.22
2018-01-10T02:27:32.655Z,4.21
2018-01-10T02:28:32.849Z,4.19
2018-01-10T02:29:31.240Z,4.25
2018-01-10T02:30:31.476Z,4.29
2018-01-10T02:31:32.535Z,4.25
2018-01-10T02:32:32.747Z,4.2
2018-01-10T02:33:32.946Z,4.19
2018-01-10T02:34:31.287Z,4.12
2018-01-10T02:35:31.149Z,4.17
2018-01-10T02:36:31.362Z,4.16
2018-01-10T02:37:31.348Z,4.19
2018-01-10T02:38:32.750Z,4.22
2018-01-10T02:39:31.142Z,4.19
2018-01-10T02:40:31.543Z,4.23
2018-01-10T02:41:31.372Z,4.23
2018-01-10T02:42:32.924Z,4.28
2018-01-10T02:43:31.032Z,4.23
2018-01-10T02:44:31.360Z,4.23
2018-01-10T02:45:32.705Z,4.27
2018-01-10T02:46:32.542Z,4.23
2018-01-10T02:47:33.067Z,4.29
2018-01-10T02:48:31.481Z,4.27
2018-01-10T02:49:30.865Z,4.29
2018-01-10T02:50:31.165Z,4.28
2018-01-10T02:51:31.584Z,4.24
2018-01-10T02:52:31.096Z,4.28
2018-01-10T02:53:31.434Z,4.3
2018-01-10T02:54:32.598Z,4.25
2018-01-10T02:55:32.867Z,4.28
2018-01-10T02:56:31.133Z,4.36
2018-01-10T02:57:32.659Z,4.31
2018-01-10T02:58:30.964Z,4.3
2018-01-10T02:59:30.973Z,4.25
2018-01-10T03:00:31.242Z,4.24
2018-01-10T03:01:32.832Z,4.35
2018-01-10T03:02:31.365Z,4.35
2018-01-10T03:03:31.632Z,4.31
2018-01-10T03:04:31.449Z,4.33
2018-01-10T03:05:31.609Z,4.31
2018-01-10T03:06:31.406Z,4.34
2018-01-10T03:07:32.781Z,4.25
2018-01-10T03:08:31.088Z,4.25
2018-01-10T03:09:31.418Z,4.32
2018-01-10T03:10:32.901Z,4.28
2018-01-10T03:11:31.134Z,4.31
2018-01-10T03:12:31.383Z,4.3
2018-01-10T03:13:32.985Z,4.25
2018-01-10T03:14:31.385Z,4.24
2018-01-10T03:15:32.950Z,4.35
2018-01-10T03:16:30.990Z,4.27
2018-01-10T03:17:31.498Z,4.28
2018-01-10T03:18:31.618Z,4.31
2018-01-10T03:19:30.680Z,4.24
2018-01-10T03:20:31.388Z,4.3
2018-01-10T03:21:30.572Z,4.32
2018-01-10T03:22:30.995Z,4.26
2018-01-10T03:23:31.459Z,4.25
2018-01-10T03:24:31.038Z,4.24
2018-01-10T03:25:31.571Z,4.33
2018-01-10T03:26:31.570Z,4.31
2018-01-10T03:27:31.349Z,4.34
2018-01-10T03:28:30.626Z,4.32
2018-01-10T03:29:30.940Z,4.25
2018-01-10T03:30:31.075Z,4.35
2018-01-10T03:31:31.338Z,4.26
2018-01-10T03:32:30.682Z,4.25
2018-01-10T03:33:31.285Z,4.28
2018-01-10T03:34:30.659Z,4.28
2018-01-10T03:35:31.029Z,4.32
2018-01-10T03:36:30.947Z,4.41
2018-01-10T03:37:31.263Z,4.33
2018-01-10T03:38:31.413Z,4.36
2018-01-10T03:39:30.692Z,4.31
2018-01-10T03:40:30.669Z,4.37
2018-01-10T03:41:31.310Z,4.41
2018-01-10T03:42:30.726Z,4.44
2018-01-10T03:43:30.652Z,4.4
2018-01-10T03:44:30.938Z,4.42
2018-01-10T03:45:31.245Z,4.37
2018-01-10T03:46:31.314Z,4.32
2018-01-10T03:47:30.800Z,4.42
2018-01-10T03:48:31.170Z,4.37
2018-01-10T03:49:31.519Z,4.35
2018-01-10T03:50:31.013Z,4.35
2018-01-10T03:51:31.458Z,4.33
2018-01-10T03:52:30.909Z,4.28
2018-01-10T03:53:31.375Z,4.28
2018-01-10T03:54:30.718Z,4.33
2018-01-10T03:55:30.519Z,4.3
2018-01-10T03:56:30.833Z,4.34
2018-01-10T03:57:31.034Z,4.35
2018-01-10T03:58:30.905Z,4.3
2018-01-10T03:59:31.236Z,4.32
2018-01-10T04:00:30.941Z,4.29
2018-01-10T04:01:30.777Z,4.27
2018-01-10T04:02:31.002Z,4.36
2018-01-10T04:03:30.763Z,4.37
2018-01-10T04:04:31.047Z,4.36
2018-01-10T04:05:30.815Z,4.32
2018-01-10T04:06:31.121Z,4.36
2018-01-10T04:07:30.727Z,4.41
2018-01-10T04:08:30.829Z,4.36
2018-01-10T04:09:31.065Z,4.32
2018-01-10T04:10:30.768Z,4.25
2018-01-10T04:11:30.959Z,4.34
2018-01-10T04:12:30.795Z,4.31
2018-01-10T04:13:31.214Z,4.31
2018-01-10T04:14:31.316Z,4.32
2018-01-10T04:15:30.674Z,4.33
2018-01-10T04:16:30.540Z,4.34
2018-01-10T04:17:30.751Z,4.29
2018-01-10T04:18:30.867Z,4.4
2018-01-10T04:19:31.323Z,4.38
2018-01-10T04:20:30.508Z,4.3
2018-01-10T04:21:30.686Z,4.39
2018-01-10T04:22:31.235Z,4.3
2018-01-10T04:23:30.585Z,4.37
2018-01-10T04:24:30.943Z,4.41
2018-01-10T04:25:30.854Z,4.38
2018-01-10T04:26:31.098Z,4.32
2018-01-10T04:27:31.431Z,4.35
2018-01-10T04:28:30.838Z,4.35
2018-01-10T04:29:31.288Z,4.45
2018-01-10T04:30:31.116Z,4.36
2018-01-10T04:31:31.395Z,4.35
2018-01-10T04:32:31.334Z,4.35
2018-01-10T04:33:30.620Z,4.4
2018-01-10T04:34:30.726Z,4.35
2018-01-10T04:35:31.054Z,4.37
2018-01-10T04:36:31.358Z,4.36
2018-01-10T04:37:31.210Z,4.35
2018-01-10T04:38:30.996Z,4.39
2018-01-10T04:39:31.463Z,4.36
2018-01-10T04:40:31.112Z,4.4
2018-01-10T04:41:31.106Z,4.36
2018-01-10T04:42:31.480Z,4.34
2018-01-10T04:43:30.858Z,4.34
2018-01-10T04:44:31.186Z,4.28
2018-01-10T04:45:30.537Z,4.36
2018-01-10T04:46:30.820Z,4.31
2018-01-10T04:47:31.248Z,4.41
2018-01-10T04:48:31.050Z,4.25
2018-01-10T04:49:30.701Z,4.33
2018-01-10T04:50:30.739Z,4.28
2018-01-10T04:51:31.152Z,4.31
2018-01-10T04:52:31.470Z,4.35
2018-01-10T04:53:32.151Z,4.35
2018-01-10T04:54:31.518Z,4.31
2018-01-10T04:55:31.759Z,4.37
2018-01-10T04:56:31.077Z,4.35
2018-01-10T04:57:31.317Z,4.38
2018-01-10T04:58:31.477Z,4.38
2018-01-10T04:59:30.886Z,4.4
2018-01-10T05:00:31.133Z,4.39
2018-01-10T05:01:31.241Z,4.39
2018-01-10T05:02:31.593Z,4.41
2018-01-10T05:03:30.937Z,4.46
2018-01-10T05:04:31.252Z,4.39
2018-01-10T05:05:31.769Z,4.38
2018-01-10T05:06:31.158Z,4.47
2018-01-10T05:07:31.108Z,4.47
2018-01-10T05:08:31.414Z,4.58
2018-01-10T05:09:31.296Z,4.48
2018-01-10T05:10:31.526Z,4.45
2018-01-10T05:11:31.825Z,4.43
2018-01-10T05:12:31.361Z,4.4
2018-01-10T05:13:31.939Z,4.42
2018-01-10T05:14:31.150Z,4.43
2018-01-10T05:15:31.076Z,4.47
2018-01-10T05:16:31.216Z,4.44
2018-01-10T05:17:30.961Z,4.41
2018-01-10T05:18:33.642Z,4.41
2018-01-10T05:19:30.933Z,4.47
2018-01-10T05:20:31.247Z,4.53
2018-01-10T05:21:31.365Z,4.54
2018-01-10T05:22:31.880Z,4.53
2018-01-10T05:23:31.445Z,4.48
2018-01-10T05:24:32.037Z,4.45
2018-01-10T05:25:31.952Z,4.4
2018-01-10T05:26:31.587Z,4.46
2018-01-10T05:27:31.790Z,4.42
2018-01-10T05:28:31.465Z,4.45
2018-01-10T05:29:31.351Z,4.45
2018-01-10T05:30:31.790Z,4.4
2018-01-10T05:31:31.786Z,4.44
2018-01-10T05:32:32.198Z,4.38
2018-01-10T05:33:31.771Z,4.46
2018-01-10T05:34:32.016Z,4.41
2018-01-10T05:35:33.556Z,4.39
2018-01-10T05:36:32.076Z,4.41
2018-01-10T05:37:31.543Z,4.38
2018-01-10T05:38:32.002Z,4.39
2018-01-10T05:39:32.002Z,4.42
2018-01-10T05:40:31.371Z,4.37
2018-01-10T05:41:31.635Z,4.41
2018-01-10T05:42:32.054Z,4.31
2018-01-10T05:43:32.075Z,4.35
2018-01-10T05:44:32.181Z,4.4
2018-01-10T05:45:31.882Z,4.35
2018-01-10T05:46:31.274Z,4.43
2018-01-10T05:47:31.692Z,4.37
2018-01-10T05:48:32.144Z,4.45
2018-01-10T05:49:31.658Z,4.43
2018-01-10T05:50:32.183Z,4.44
2018-01-10T05:51:32.345Z,4.44
2018-01-10T05:52:31.434Z,4.42
2018-01-10T05:53:31.322Z,4.49
2018-01-10T05:54:31.767Z,4.46
2018-01-10T05:55:31.881Z,4.49
2018-01-10T05:56:31.476Z,4.51
2018-01-10T05:57:31.234Z,4.49
2018-01-10T05:58:31.669Z,4.47
2018-01-10T05:59:31.069Z,4.44
2018-01-10T06:00:31.186Z,4.47
2018-01-10T06:01:31.475Z,4.52
2018-01-10T06:02:31.163Z,4.5
2018-01-10T06:03:31.960Z,4.57
2018-01-10T06:04:31.216Z,4.58
2018-01-10T06:05:31.631Z,4.56
2018-01-10T06:06:31.909Z,4.6
2018-01-10T06:07:31.650Z,4.54
2018-01-10T06:08:35.434Z,4.54
2018-01-10T06:09:31.598Z,4.51
2018-01-10T06:10:32.022Z,4.49
2018-01-10T06:11:31.577Z,4.51
2018-01-10T06:12:31.442Z,4.46
2018-01-10T06:13:31.880Z,4.46
2018-01-10T06:14:31.510Z,4.5
2018-01-10T06:15:31.603Z,4.52
2018-01-10T06:16:31.981Z,4.58
2018-01-10T06:17:31.682Z,4.55
2018-01-10T06:18:31.869Z,4.48
2018-01-10T06:19:31.528Z,4.53
2018-01-10T06:20:31.944Z,4.48
2018-01-10T06:21:32.038Z,4.52
2018-01-10T06:22:31.742Z,4.5
2018-01-10T06:23:31.211Z,4.53
2018-01-10T06:24:31.285Z,4.56
2018-01-10T06:25:32.005Z,4.47
2018-01-10T06:26:31.597Z,4.48
2018-01-10T06:27:31.071Z,4.52
2018-01-10T06:28:31.769Z,4.47
2018-01-10T06:29:31.711Z,4.51
2018-01-10T06:30:31.185Z,4.55
2018-01-10T06:31:31.930Z,4.52
2018-01-10T06:32:31.372Z,4.55
2018-01-10T06:33:31.661Z,4.52
2018-01-10T06:34:32.129Z,4.49
2018-01-10T06:35:31.498Z,4.5
2018-01-10T06:36:31.988Z,4.51
2018-01-10T06:37:31.361Z,4.47
2018-01-10T06:38:31.909Z,4.5
2018-01-10T06:39:31.575Z,4.47
2018-01-10T06:40:30.939Z,4.5
2018-01-10T06:41:31.399Z,4.51
2018-01-10T06:42:32.050Z,4.56
2018-01-10T06:43:31.409Z,4.53
2018-01-10T06:44:31.698Z,4.55
2018-01-10T06:45:31.055Z,4.49
2018-01-10T06:46:31.878Z,4.48
2018-01-10T06:47:31.204Z,4.52
2018-01-10T06:48:31.994Z,4.52
2018-01-10T06:49:31.829Z,4.45
2018-01-10T06:50:31.487Z,4.46
2018-01-10T06:51:32.092Z,4.45
2018-01-10T06:52:31.223Z,4.46
2018-01-10T06:53:31.528Z,4.42
2018-01-10T06:54:31.976Z,4.41
2018-01-10T06:55:31.396Z,4.5
2018-01-10T06:56:31.268Z,4.47
2018-01-10T06:57:31.511Z,4.41
2018-01-10T06:58:31.848Z,4.46
2018-01-10T06:59:32.260Z,4.45
2018-01-10T07:00:31.792Z,4.51
2018-01-10T07:01:31.890Z,4.42
2018-01-10T07:02:31.171Z,4.41
2018-01-10T07:03:32.102Z,4.45
2018-01-10T07:04:31.411Z,4.44
2018-01-10T07:05:31.360Z,4.45
2018-01-10T07:06:31.283Z,4.46
2018-01-10T07:07:31.418Z,4.41
2018-01-10T07:08:31.278Z,4.47
2018-01-10T07:09:31.775Z,4.47
2018-01-10T07:10:31.945Z,4.48
2018-01-10T07:11:31.473Z,4.47
2018-01-10T07:12:31.835Z,4.47
2018-01-10T07:13:31.742Z,4.39
2018-01-10T07:14:32.177Z,4.46
2018-01-10T07:15:31.618Z,4.38
2018-01-10T07:16:31.823Z,4.42
2018-01-10T07:17:31.836Z,4.42
2018-01-10T07:18:31.764Z,4.41
2018-01-10T07:19:32.030Z,4.38
2018-01-10T07:20:31.214Z,4.41
2018-01-10T07:21:31.629Z,4.45
2018-01-10T07:22:31.565Z,4.42
2018-01-10T07:23:31.232Z,4.41
2018-01-10T07:24:30.550Z,4.44
2018-01-10T07:25:31.237Z,4.43
2018-01-10T07:26:30.729Z,4.42
2018-01-10T07:27:30.832Z,4.44
2018-01-10T07:28:30.774Z,4.43
2018-01-10T07:29:31.220Z,4.46
2018-01-10T07:30:30.556Z,4.36
2018-01-10T07:31:30.954Z,4.33
2018-01-10T07:32:30.919Z,4.36
2018-01-10T07:33:31.453Z,4.4
2018-01-10T07:34:30.802Z,4.35
2018-01-10T07:35:31.000Z,4.4
2018-01-10T07:36:30.502Z,4.34
2018-01-10T07:37:30.469Z,4.35
2018-01-10T07:38:30.681Z,4.38
2018-01-10T07:39:31.140Z,4.38
2018-01-10T07:40:30.710Z,4.39
2018-01-10T07:41:31.027Z,4.38
2018-01-10T07:42:31.364Z,4.35
2018-01-10T07:43:30.553Z,4.38
2018-01-10T07:44:30.673Z,4.45
2018-01-10T07:45:30.692Z,4.52
2018-01-10T07:46:30.769Z,4.65
2018-01-10T07:47:31.354Z,4.52
2018-01-10T07:48:30.626Z,4.45
2018-01-10T07:49:30.720Z,4.43
2018-01-10T07:50:30.848Z,4.44
2018-01-10T07:51:31.102Z,4.49
2018-01-10T07:52:31.253Z,4.49
2018-01-10T07:53:30.937Z,4.48
2018-01-10T07:54:30.983Z,4.45
2018-01-10T07:55:31.448Z,4.39
2018-01-10T07:56:31.408Z,4.37
2018-01-10T07:57:31.663Z,4.39
2018-01-10T07:58:31.220Z,4.36
2018-01-10T07:59:31.186Z,4.38
2018-01-10T08:00:31.401Z,4.31
2018-01-10T08:01:31.624Z,4.38
2018-01-10T08:02:31.049Z,4.36
2018-01-10T08:03:31.347Z,4.36
2018-01-10T08:04:31.520Z,4.35
2018-01-10T08:05:30.858Z,4.38
2018-01-10T08:06:30.971Z,4.34
2018-01-10T08:07:31.085Z,4.26
2018-01-10T08:08:30.755Z,4.31
2018-01-10T08:09:31.784Z,4.27
2018-01-10T08:10:31.642Z,4.27
2018-01-10T08:11:30.960Z,4.33
2018-01-10T08:12:31.391Z,4.3
2018-01-10T08:13:31.835Z,4.3
2018-01-10T08:14:31.277Z,4.28
2018-01-10T08:15:31.613Z,4.24
2018-01-10T08:16:31.274Z,4.32
2018-01-10T08:17:31.339Z,4.32
2018-01-10T08:18:31.046Z,4.3
2018-01-10T08:19:31.525Z,4.31
2018-01-10T08:20:31.773Z,4.29
2018-01-10T08:21:30.976Z,4.29
2018-01-10T08:22:30.973Z,4.2
2018-01-10T08:23:31.266Z,4.22
2018-01-10T08:24:32.105Z,4.23
2018-01-10T08:25:31.642Z,4.29
2018-01-10T08:26:31.885Z,4.29
2018-01-10T08:27:31.235Z,4.29
2018-01-10T08:28:31.315Z,4.28
2018-01-10T08:29:31.629Z,4.28
2018-01-10T08:30:32.055Z,4.27
2018-01-10T08:31:31.375Z,4.34
2018-01-10T08:32:31.921Z,4.31
2018-01-10T08:33:31.158Z,4.37
2018-01-10T08:34:31.282Z,4.3
2018-01-10T08:35:32.057Z,4.37
2018-01-10T08:36:31.488Z,4.3
2018-01-10T08:37:31.785Z,4.32
2018-01-10T08:38:31.996Z,4.31
2018-01-10T08:39:31.343Z,4.34
2018-01-10T08:40:31.554Z,4.38
2018-01-10T08:41:31.929Z,4.35
2018-01-10T08:42:31.604Z,4.39
2018-01-10T08:43:31.380Z,4.31
2018-01-10T08:44:31.545Z,4.36
2018-01-10T08:45:31.497Z,4.34
2018-01-10T08:46:31.724Z,4.3
2018-01-10T08:47:31.126Z,4.31
2018-01-10T08:48:31.262Z,4.28
2018-01-10T08:49:32.167Z,4.33
2018-01-10T08:50:31.288Z,4.3
2018-01-10T08:51:32.230Z,4.31
2018-01-10T08:52:31.676Z,4.31
2018-01-10T08:53:31.450Z,4.34
2018-01-10T08:54:30.941Z,4.37
2018-01-10T08:55:30.770Z,4.37
2018-01-10T08:56:30.306Z,4.42
2018-01-10T08:57:30.359Z,4.36
2018-01-10T08:58:30.670Z,4.39
2018-01-10T08:59:31.097Z,4.33
2018-01-10T09:00:30.525Z,4.33
2018-01-10T09:01:30.618Z,4.38
2018-01-10T09:02:30.795Z,4.41
2018-01-10T09:03:31.209Z,4.37
2018-01-10T09:04:31.037Z,4.35
2018-01-10T09:05:31.346Z,4.38
2018-01-10T09:06:30.779Z,4.4
2018-01-10T09:07:31.318Z,4.37
2018-01-10T09:08:30.970Z,4.39
2018-01-10T09:09:31.111Z,4.39
2018-01-10T09:10:31.309Z,4.37
2018-01-10T09:11:30.744Z,4.44
2018-01-10T09:12:30.989Z,4.46
2018-01-10T09:13:30.984Z,4.37
2018-01-10T09:14:31.183Z,4.45
2018-01-10T09:15:30.475Z,4.42
2018-01-10T09:16:30.603Z,4.45
2018-01-10T09:17:30.793Z,4.42
2018-01-10T09:18:31.210Z,4.51
2018-01-10T09:19:30.992Z,4.45
2018-01-10T09:20:31.286Z,4.55
2018-01-10T09:21:30.985Z,4.52
2018-01-10T09:22:30.420Z,4.52
2018-01-10T09:23:30.575Z,4.58
2018-01-10T09:24:30.778Z,4.49
2018-01-10T09:25:30.986Z,4.39
2018-01-10T09:26:31.592Z,4.42
2018-01-10T09:27:30.923Z,4.48
2018-01-10T09:28:31.282Z,4.42
2018-01-10T09:29:31.332Z,4.47
2018-01-10T09:30:31.590Z,4.45
2018-01-10T09:31:31.467Z,4.5
2018-01-10T09:32:31.660Z,4.56
2018-01-10T09:33:30.996Z,4.48
2018-01-10T09:34:31.014Z,4.5
2018-01-10T09:35:31.021Z,4.57
2018-01-10T09:36:30.853Z,4.63
2018-01-10T09:37:31.683Z,4.57
2018-01-10T09:38:31.414Z,4.5
2018-01-10T09:39:31.779Z,4.57
2018-01-10T09:40:31.090Z,4.57
2018-01-10T09:41:31.313Z,4.57
2018-01-10T09:42:31.275Z,4.6
2018-01-10T09:43:31.682Z,4.6
2018-01-10T09:44:31.408Z,4.58
2018-01-10T09:45:31.718Z,4.6
2018-01-10T09:46:31.083Z,4.66
2018-01-10T09:47:31.313Z,4.64
2018-01-10T09:48:31.435Z,4.64
2018-01-10T09:49:31.576Z,4.6
2018-01-10T09:50:31.204Z,4.61
2018-01-10T09:51:31.379Z,4.64
2018-01-10T09:52:31.265Z,4.62
2018-01-10T09:53:31.469Z,4.64
2018-01-10T09:54:31.047Z,4.65
2018-01-10T09:55:31.610Z,4.71
2018-01-10T09:56:31.890Z,4.64
2018-01-10T09:57:31.808Z,4.64
2018-01-10T09:58:31.199Z,4.55
2018-01-10T09:59:31.418Z,4.54
2018-01-10T10:00:31.792Z,4.57
2018-01-10T10:01:31.200Z,4.6
2018-01-10T10:02:31.556Z,4.62
2018-01-10T10:03:31.429Z,4.62
2018-01-10T10:04:31.667Z,4.58
2018-01-10T10:05:31.659Z,4.58
2018-01-10T10:06:31.861Z,4.62
2018-01-10T10:07:31.598Z,4.56
2018-01-10T10:08:31.807Z,4.53
2018-01-10T10:09:31.366Z,4.64
2018-01-10T10:10:31.886Z,4.61
2018-01-10T10:11:31.123Z,4.61
2018-01-10T10:12:31.809Z,4.57
2018-01-10T10:13:31.186Z,4.61
2018-01-10T10:14:31.537Z,4.6
2018-01-10T10:15:31.525Z,4.65
2018-01-10T10:16:31.847Z,4.65
2018-01-10T10:17:31.708Z,4.67
2018-01-10T10:18:31.449Z,4.66
2018-01-10T10:19:31.721Z,4.58
2018-01-10T10:20:31.327Z,4.64
2018-01-10T10:21:32.140Z,4.61
2018-01-10T10:22:31.593Z,4.62
2018-01-10T10:23:31.441Z,4.62
2018-01-10T10:24:31.258Z,4.59
2018-01-10T10:25:31.642Z,4.6
2018-01-10T10:26:31.673Z,4.61
2018-01-10T10:27:32.088Z,4.68
2018-01-10T10:28:31.445Z,4.56
2018-01-10T10:29:31.808Z,4.63
2018-01-10T10:30:31.188Z,4.71
2018-01-10T10:31:31.502Z,4.66
2018-01-10T10:32:31.997Z,4.68
2018-01-10T10:33:31.402Z,4.74
2018-01-10T10:34:31.149Z,4.55
2018-01-10T10:35:31.424Z,4.7
2018-01-10T10:36:32.039Z,4.67
2018-01-10T10:37:31.338Z,4.66
2018-01-10T10:38:31.795Z,4.67
2018-01-10T10:39:32.033Z,4.71
2018-01-10T10:40:31.356Z,4.59
2018-01-10T10:41:31.431Z,4.6
2018-01-10T10:42:31.906Z,4.66
2018-01-10T10:43:32.259Z,4.65
2018-01-10T10:44:31.764Z,4.58
2018-01-10T10:45:31.196Z,4.7
2018-01-10T10:46:31.636Z,4.62
2018-01-10T10:47:31.831Z,4.64
2018-01-10T10:48:31.312Z,4.68
2018-01-10T10:49:31.701Z,4.71
2018-01-10T10:50:31.851Z,4.62
2018-01-10T10:51:31.320Z,4.7
2018-01-10T10:52:31.378Z,4.75
2018-01-10T10:53:31.667Z,4.67
2018-01-10T10:54:31.642Z,4.66
2018-01-10T10:55:30.981Z,4.7
2018-01-10T10:56:31.366Z,4.7
2018-01-10T10:57:31.589Z,4.69
2018-01-10T10:58:31.267Z,4.59
2018-01-10T10:59:31.465Z,4.62
2018-01-10T11:00:30.616Z,4.53
2018-01-10T11:01:30.813Z,4.65
2018-01-10T11:02:31.353Z,4.66
2018-01-10T11:03:31.235Z,4.75
2018-01-10T11:04:31.186Z,4.7
2018-01-10T11:05:31.315Z,4.73
2018-01-10T11:06:30.650Z,4.68
2018-01-10T11:07:30.806Z,4.66
2018-01-10T11:08:31.102Z,4.68
2018-01-10T11:09:31.290Z,4.53
2018-01-10T11:10:31.450Z,4.56
2018-01-10T11:11:30.793Z,4.67
2018-01-10T11:12:30.662Z,4.8
2018-01-10T11:13:31.207Z,4.81
2018-01-10T11:14:31.665Z,4.68
2018-01-10T11:15:31.417Z,4.81
2018-01-10T11:16:31.916Z,4.74
2018-01-10T11:17:30.522Z,4.85
2018-01-10T11:18:30.761Z,4.82
2018-01-10T11:19:30.930Z,4.81
2018-01-10T11:20:31.212Z,4.87
2018-01-10T11:21:31.119Z,4.57
2018-01-10T11:22:31.535Z,4.69
2018-01-10T11:23:30.704Z,4.63
2018-01-10T11:24:30.966Z,4.68
2018-01-10T11:25:32.405Z,4.74
2018-01-10T11:26:32.151Z,4.69
2018-01-10T11:27:30.764Z,4.61
2018-01-10T11:28:30.921Z,4.58
2018-01-10T11:29:31.256Z,4.62
2018-01-10T11:30:31.460Z,4.67
2018-01-10T11:31:31.642Z,4.65
2018-01-10T11:32:31.517Z,4.65
2018-01-10T11:33:30.993Z,4.6
2018-01-10T11:34:31.111Z,4.57
2018-01-10T11:35:31.295Z,4.52
2018-01-10T11:36:31.208Z,4.49
2018-01-10T11:37:31.558Z,4.57
2018-01-10T11:38:31.080Z,4.71
2018-01-10T11:39:31.316Z,4.75
2018-01-10T11:40:31.589Z,4.7
2018-01-10T11:41:31.568Z,4.78
2018-01-10T11:42:30.835Z,4.85
2018-01-10T11:43:31.357Z,5
2018-01-10T11:44:31.506Z,4.97
2018-01-10T11:45:31.119Z,4.93
2018-01-10T11:46:31.359Z,4.93
2018-01-10T11:47:31.673Z,4.76
2018-01-10T11:48:30.997Z,4.75
2018-01-10T11:49:31.561Z,4.81
2018-01-10T11:50:30.916Z,4.79
2018-01-10T11:51:31.167Z,4.86
2018-01-10T11:52:31.333Z,4.93
2018-01-10T11:53:31.660Z,4.95
2018-01-10T11:54:30.888Z,4.94
2018-01-10T11:55:31.650Z,4.92
2018-01-10T11:56:31.257Z,5.07
2018-01-10T11:57:33.721Z,5.04
2018-01-10T11:58:31.133Z,5.15
2018-01-10T11:59:31.278Z,5.21
2018-01-10T12:00:31.733Z,5.19
2018-01-10T12:01:32.105Z,5.07
2018-01-10T12:02:31.573Z,5.2
2018-01-10T12:03:32.065Z,5.19
2018-01-10T12:04:31.437Z,5.13
2018-01-10T12:05:31.266Z,5.22
2018-01-10T12:06:31.547Z,5.26
2018-01-10T12:07:31.223Z,5.24
2018-01-10T12:08:31.969Z,5.19
2018-01-10T12:09:31.052Z,5.11
2018-01-10T12:10:31.123Z,5.05
2018-01-10T12:11:31.752Z,5.05
2018-01-10T12:12:31.964Z,5.07
2018-01-10T12:13:32.074Z,5.06
2018-01-10T12:14:31.732Z,5.14
2018-01-10T12:15:31.764Z,5.08
2018-01-10T12:16:31.292Z,5.16
2018-01-10T12:17:31.886Z,5.31
2018-01-10T12:18:31.390Z,5.17
2018-01-10T12:19:32.058Z,5.05
2018-01-10T12:20:31.642Z,5.3
2018-01-10T12:21:31.513Z,5.3
2018-01-10T12:22:32.030Z,5.2
2018-01-10T12:23:31.565Z,5.23
2018-01-10T12:24:31.937Z,5.06
2018-01-10T12:25:31.596Z,5.17
2018-01-10T12:26:31.918Z,5.2
2018-01-10T12:27:32.105Z,5.11
2018-01-10T12:28:31.911Z,5.17
2018-01-10T12:29:31.203Z,5.03
2018-01-10T12:30:31.731Z,5.12
2018-01-10T12:31:31.116Z,5.38
2018-01-10T12:32:31.380Z,5.34
2018-01-10T12:33:32.003Z,5.12
2018-01-10T12:34:30.903Z,5.24
2018-01-10T12:35:31.912Z,5.23
2018-01-10T12:36:31.362Z,5.32
2018-01-10T12:37:31.724Z,5.25
2018-01-10T12:38:31.317Z,5.38
2018-01-10T12:39:31.885Z,5.46
2018-01-10T12:40:31.243Z,5.43
2018-01-10T12:41:30.989Z,5.45
2018-01-10T12:42:31.397Z,5.3
2018-01-10T12:43:31.606Z,5.37
2018-01-10T12:44:31.932Z,5.35
2018-01-10T12:45:31.378Z,5.31
2018-01-10T12:46:31.329Z,5.36
2018-01-10T12:47:31.728Z,5.33
2018-01-10T12:48:31.185Z,5.37
2018-01-10T12:49:31.434Z,5.41
2018-01-10T12:50:31.363Z,5.41
2018-01-10T12:51:31.722Z,5.38
2018-01-10T12:52:30.998Z,5.43
2018-01-10T12:53:31.320Z,5.46
2018-01-10T12:54:31.801Z,5.34
2018-01-10T12:55:31.183Z,5.27
2018-01-10T12:56:31.352Z,5.33
2018-01-10T12:57:31.467Z,5.41
2018-01-10T12:58:31.519Z,5.37
2018-01-10T12:59:31.873Z,5.4
2018-01-10T13:00:31.488Z,5.47
2018-01-10T13:01:31.016Z,5.48
2018-01-10T13:02:31.433Z,5.29
2018-01-10T13:03:31.768Z,5.41
2018-01-10T13:04:31.856Z,5.39
2018-01-10T13:05:31.474Z,5.47
2018-01-10T13:06:31.435Z,5.43
2018-01-10T13:07:31.655Z,5.36
2018-01-10T13:08:30.898Z,5.43
2018-01-10T13:09:31.897Z,5.4
2018-01-10T13:10:30.987Z,5.45
2018-01-10T13:11:31.485Z,5.45
2018-01-10T13:12:31.748Z,5.49
2018-01-10T13:13:31.899Z,5.5
2018-01-10T13:14:31.932Z,5.4
2018-01-10T13:15:31.458Z,5.39
2018-01-10T13:16:31.316Z,5.45
2018-01-10T13:17:31.638Z,5.41
2018-01-10T13:18:31.035Z,5.43
2018-01-10T13:19:31.461Z,5.44
2018-01-10T13:20:31.451Z,5.51
2018-01-10T13:21:30.808Z,5.48
2018-01-10T13:22:31.049Z,5.57
2018-01-10T13:23:31.453Z,5.52
2018-01-10T13:24:31.177Z,5.53
2018-01-10T13:25:31.589Z,5.5